Time;durP1;ratioP1;P1;durP2;ratioP2;P2;SDS_P1;SDS_P2;PMS_P1;PMS_P2;Temp;Humidity;BMP_temperature;BMP_pressure;BME280_temperature;BME280_humidity;BME280_pressure;Samples;Min_cycle;Max_cycle;Signal;HPM_P1;HPM_P2
2022/05/17 00:01:38;;;;;;;9.18;4.45;;;;;;;14.39;60.65;99250.45;1695031;84;21004;-77
2022/05/17 00:04:05;;;;;;;21.70;5.33;;;;;;;14.36;62.01;99248.78;1709071;83;21044;-77
2022/05/17 00:06:32;;;;;;;21.15;5.25;;;;;;;14.31;60.95;99250.74;1695865;83;21526;-77
2022/05/17 00:08:59;;;;;;;12.68;5.05;;;;;;;14.27;59.33;99250.45;1706382;83;21019;-77
2022/05/17 00:11:28;;;;;;;12.05;4.87;;;;;;;14.20;60.81;99247.66;1706057;83;21047;-77
2022/05/17 00:13:55;;;;;;;9.60;4.95;;;;;;;14.17;60.23;99238.64;1695843;83;21503;-76
2022/05/17 00:16:22;;;;;;;16.32;5.05;;;;;;;14.16;58.69;99235.62;1710628;83;21006;-77
2022/05/17 00:18:49;;;;;;;10.08;4.85;;;;;;;14.12;60.41;99231.83;1711322;83;21031;-77
2022/05/17 00:21:16;;;;;;;12.95;5.03;;;;;;;14.08;58.75;99230.20;1687051;85;21535;-77
2022/05/17 00:23:42;;;;;;;10.70;4.62;;;;;;;14.03;61.06;99234.78;1688061;85;21053;-76
2022/05/17 00:26:10;;;;;;;13.10;5.00;;;;;;;14.00;59.46;99244.02;1659703;86;21048;-77
2022/05/17 00:28:38;;;;;;;11.60;5.08;;;;;;;13.98;60.66;99246.30;1687189;85;22134;-77
2022/05/17 00:31:06;;;;;;;8.15;4.22;;;;;;;13.95;60.59;99239.86;1716571;83;21026;-74
2022/05/17 00:33:34;;;;;;;7.60;4.42;;;;;;;13.88;61.35;99249.70;1716613;83;21030;-77
2022/05/17 00:36:01;;;;;;;9.25;4.30;;;;;;;13.80;60.46;99245.21;1716652;83;21038;-77
2022/05/17 00:38:28;;;;;;;10.20;3.90;;;;;;;13.75;62.19;99249.30;1716574;83;21050;-77
2022/05/17 00:40:55;;;;;;;7.78;3.83;;;;;;;13.71;60.00;99248.55;1716501;83;21022;-77
2022/05/17 00:46:23;;;;;;;7.08;4.10;;;;;;;13.63;60.98;99241.91;1716654;83;21075;-77
2022/05/17 00:48:51;;;;;;;6.58;3.72;;;;;;;13.60;61.66;99234.16;1715403;83;21051;-75
2022/05/17 00:51:18;;;;;;;9.05;3.87;;;;;;;13.56;62.06;99230.80;1683390;85;21034;-76
2022/05/17 00:53:46;;;;;;;9.23;3.42;;;;;;;13.57;63.12;99230.34;1687069;85;21527;-77
2022/05/17 00:56:19;;;;;;;7.92;3.30;;;;;;;13.56;63.01;99233.41;1681044;85;21050;-74
2022/05/17 00:58:51;;;;;;;9.50;4.10;;;;;;;13.57;62.49;99220.77;1701502;83;21146;-75
2022/05/17 01:01:24;;;;;;;9.35;4.20;;;;;;;13.59;61.91;99221.99;1716595;83;20998;-76
2022/05/17 01:03:57;;;;;;;12.28;5.05;;;;;;;13.56;61.70;99226.88;1710042;83;20984;-76
2022/05/17 01:06:28;;;;;;;13.55;4.97;;;;;;;13.56;62.58;99222.96;1683222;85;21504;-76
2022/05/17 01:08:55;;;;;;;9.40;4.92;;;;;;;13.57;63.89;99233.83;1715945;83;21098;-76
2022/05/17 01:11:22;;;;;;;11.95;5.45;;;;;;;13.56;64.00;99236.02;1707170;83;21019;-76
2022/05/17 01:16:34;;;;;;;11.10;5.47;;;;;;;13.41;62.93;99232.20;1711044;83;21006;-77
2022/05/17 01:19:03;;;;;;;11.88;5.20;;;;;;;13.28;63.57;99225.19;1691164;84;21060;-77
2022/05/17 01:21:32;;;;;;;14.07;5.33;;;;;;;13.19;64.51;99229.44;1691436;84;21587;-76
2022/05/17 01:23:58;;;;;;;10.93;5.40;;;;;;;13.12;61.94;99225.31;1691574;84;21051;-77
2022/05/17 01:26:29;;;;;;;13.62;5.55;;;;;;;13.04;62.83;99224.72;1692900;84;21024;-74
2022/05/17 01:28:55;;;;;;;14.03;5.72;;;;;;;13.01;63.91;99226.98;1682088;85;21055;-76
2022/05/17 01:31:23;;;;;;;10.35;5.45;;;;;;;12.97;64.64;99219.28;1671968;85;21088;-77
2022/05/17 01:33:49;;;;;;;12.25;6.53;;;;;;;12.94;64.20;99214.57;1687461;85;21039;-77
2022/05/17 01:36:21;;;;;;;10.68;5.58;;;;;;;12.94;64.92;99223.70;1697515;84;21027;-77
2022/05/17 01:38:50;;;;;;;10.80;5.70;;;;;;;12.92;64.60;99225.52;1691659;84;20972;-76
2022/05/17 01:41:13;;;;;;;12.78;5.47;;;;;;;12.90;67.18;99216.03;1691284;84;21048;-76
2022/05/17 01:43:40;;;;;;;10.78;5.30;;;;;;;12.85;67.40;99214.89;1691163;84;21059;-76
2022/05/17 01:46:08;;;;;;;9.58;5.28;;;;;;;12.82;65.33;99218.89;1697025;84;21047;-76
2022/05/17 01:48:37;;;;;;;13.32;6.28;;;;;;;12.76;65.99;99220.39;1700916;84;20991;-76
2022/05/17 01:51:06;;;;;;;8.85;5.50;;;;;;;12.67;67.29;99220.67;1700925;84;21079;-76
2022/05/17 01:53:33;;;;;;;10.15;5.00;;;;;;;12.57;67.05;99220.11;1694486;84;21536;-76
2022/05/17 01:56:05;;;;;;;11.35;5.17;;;;;;;12.53;66.45;99216.77;1700415;84;21067;-76
2022/05/17 01:58:32;;;;;;;10.48;4.95;;;;;;;12.52;64.36;99219.41;1699444;84;21131;-76
2022/05/17 02:00:59;;;;;;;15.13;5.92;;;;;;;12.47;64.67;99215.66;1698486;84;21032;-76
2022/05/17 02:03:26;;;;;;;10.25;4.90;;;;;;;12.48;66.83;99216.05;1696179;84;20995;-76
2022/05/17 02:05:53;;;;;;;10.08;5.00;;;;;;;12.53;66.89;99221.11;1700797;84;21546;-76
2022/05/17 02:08:20;;;;;;;9.18;4.90;;;;;;;12.56;66.45;99216.27;1698020;84;21019;-76
2022/05/17 02:10:46;;;;;;;9.18;4.85;;;;;;;12.61;66.09;99218.27;1658663;85;21040;-76
2022/05/17 02:13:13;;;;;;;11.97;5.28;;;;;;;12.63;66.73;99213.39;1697432;84;20980;-76
2022/05/17 02:15:40;;;;;;;14.63;5.50;;;;;;;12.65;66.84;99206.41;1678265;85;21396;-77
2022/05/17 02:18:06;;;;;;;10.78;4.80;;;;;;;12.68;66.72;99214.11;1678670;85;21020;-76
2022/05/17 02:20:35;;;;;;;17.52;5.53;;;;;;;12.71;67.14;99209.23;1682002;85;21594;-77
2022/05/17 02:23:02;;;;;;;10.20;5.47;;;;;;;12.70;68.39;99199.73;1671810;85;21563;-77
2022/05/17 02:25:28;;;;;;;16.32;5.80;;;;;;;12.69;68.34;99208.44;1673484;85;21528;-77
2022/05/17 02:27:56;;;;;;;10.48;5.35;;;;;;;12.64;68.49;99204.68;1690965;84;20984;-75
2022/05/17 02:30:22;;;;;;;11.53;5.42;;;;;;;12.61;68.75;99202.61;1696873;84;21028;-75
2022/05/17 02:32:49;;;;;;;16.20;5.33;;;;;;;12.59;68.26;99201.81;1690859;84;21007;-76
2022/05/17 02:35:16;;;;;;;13.65;5.10;;;;;;;12.54;68.01;99200.20;1694248;84;21064;-77
2022/05/17 02:37:43;;;;;;;11.22;5.47;;;;;;;12.48;68.38;99200.40;1694591;84;21524;-76
2022/05/17 02:40:10;;;;;;;11.63;5.33;;;;;;;12.42;68.63;99203.20;1691046;84;21028;-76
2022/05/17 02:42:37;;;;;;;11.83;5.87;;;;;;;12.34;68.04;99205.19;1696537;84;21512;-76
2022/05/17 02:45:06;;;;;;;11.57;5.53;;;;;;;12.26;66.39;99209.33;1682632;85;21007;-76
2022/05/17 02:47:34;;;;;;;17.05;6.10;;;;;;;12.17;69.40;99216.11;1681504;85;21008;-77
2022/05/17 02:50:01;;;;;;;11.20;5.50;;;;;;;12.12;68.24;99216.25;1679175;85;21048;-77
2022/05/17 02:52:28;;;;;;;11.03;5.67;;;;;;;12.05;69.31;99209.50;1677760;85;21029;-76
2022/05/17 02:54:54;;;;;;;15.18;5.15;;;;;;;11.96;70.83;99212.82;1688495;84;21063;-77
2022/05/17 02:57:21;;;;;;;11.63;5.05;;;;;;;11.88;69.37;99208.67;1679225;85;21049;-77
2022/05/17 02:59:48;;;;;;;12.58;5.28;;;;;;;11.84;70.43;99208.81;1681311;85;21151;-77
2022/05/17 03:02:14;;;;;;;11.57;4.83;;;;;;;11.80;70.09;99204.55;1671254;85;20999;-76
2022/05/17 03:04:41;;;;;;;9.85;5.00;;;;;;;11.79;69.71;99208.92;1678331;85;21443;-77
2022/05/17 03:07:08;;;;;;;10.53;5.20;;;;;;;11.78;70.13;99206.35;1694595;84;21019;-77
2022/05/17 03:09:35;;;;;;;18.42;5.60;;;;;;;11.75;70.38;99208.15;1691100;84;21007;-76
2022/05/17 03:12:02;;;;;;;28.92;7.08;;;;;;;11.75;70.54;99208.15;1680854;85;21012;-77
2022/05/17 03:14:29;;;;;;;21.80;6.15;;;;;;;11.72;70.18;99212.61;1671932;85;21000;-76
2022/05/17 03:16:56;;;;;;;22.70;6.17;;;;;;;11.70;68.96;99212.66;1678101;85;21031;-76
2022/05/17 03:19:24;;;;;;;12.35;5.00;;;;;;;11.68;70.48;99217.05;1700533;84;21027;-76
2022/05/17 03:21:50;;;;;;;16.30;5.30;;;;;;;11.70;70.25;99224.37;1696832;84;21500;-76
2022/05/17 03:24:17;;;;;;;13.40;5.15;;;;;;;11.73;69.43;99224.27;1691046;84;21079;-76
2022/05/17 03:26:43;;;;;;;14.28;5.05;;;;;;;11.78;70.13;99235.00;1677266;85;21067;-76
2022/05/17 03:29:10;;;;;;;10.32;5.12;;;;;;;11.83;70.32;99224.87;1682192;85;21048;-76
2022/05/17 03:31:36;;;;;;;13.40;5.72;;;;;;;11.86;70.48;99223.49;1669306;85;21040;-77
2022/05/17 03:34:03;;;;;;;9.53;5.03;;;;;;;11.91;71.08;99225.99;1693585;84;21027;-76
2022/05/17 03:36:30;;;;;;;9.68;5.20;;;;;;;11.96;70.65;99224.55;1693885;84;21047;-76
2022/05/17 03:38:56;;;;;;;11.85;5.30;;;;;;;12.01;71.21;99231.34;1679103;85;21476;-76
2022/05/17 03:41:23;;;;;;;8.68;5.05;;;;;;;12.08;69.67;99242.46;1678135;85;21095;-76
2022/05/17 03:43:49;;;;;;;9.93;5.70;;;;;;;12.09;71.45;99249.36;1700861;84;20988;-76
2022/05/17 03:46:16;;;;;;;12.25;6.37;;;;;;;12.12;71.23;99235.80;1694643;84;21028;-76
2022/05/17 03:48:42;;;;;;;9.80;5.70;;;;;;;12.20;71.90;99243.86;1698531;84;21027;-77
2022/05/17 03:51:15;;;;;;;12.88;5.85;;;;;;;12.24;70.78;99236.34;1697285;84;21056;-77
2022/05/17 03:53:43;;;;;;;10.80;5.87;;;;;;;12.28;71.53;99239.27;1691238;84;21051;-76
2022/05/17 03:56:10;;;;;;;13.08;6.05;;;;;;;12.31;70.99;99242.64;1677592;85;21068;-77
2022/05/17 03:58:38;;;;;;;14.70;5.50;;;;;;;12.37;71.04;99232.91;1678286;85;21114;-76
2022/05/17 04:01:05;;;;;;;11.50;5.08;;;;;;;12.35;68.48;99240.77;1658902;85;21027;-76
2022/05/17 04:03:33;;;;;;;9.73;5.00;;;;;;;12.36;70.24;99236.44;1649898;85;21023;-76
2022/05/17 04:06:01;;;;;;;11.43;5.30;;;;;;;12.39;69.93;99236.33;1652150;84;21531;-76
2022/05/17 04:08:28;;;;;;;14.45;5.08;;;;;;;12.42;70.39;99236.25;1665987;84;21046;-76
2022/05/17 04:10:57;;;;;;;16.30;5.37;;;;;;;12.45;69.74;99232.22;1701292;84;20993;-74
2022/05/17 04:13:29;;;;;;;23.85;5.47;;;;;;;12.48;69.88;99236.06;1677819;85;20995;-77
2022/05/17 04:16:01;;;;;;;12.30;5.40;;;;;;;12.51;69.23;99241.16;1679015;85;21507;-76
2022/05/17 04:18:29;;;;;;;13.30;5.40;;;;;;;12.53;68.75;99237.63;1676520;84;21108;-77
2022/05/17 04:21:00;;;;;;;17.32;5.80;;;;;;;12.54;69.56;99238.02;1674108;86;21069;-76
2022/05/17 04:23:28;;;;;;;9.75;5.85;;;;;;;12.56;67.96;99236.67;1698435;84;21012;-75
2022/05/17 04:25:56;;;;;;;19.17;6.28;;;;;;;12.59;67.62;99243.08;1693557;84;21032;-77
2022/05/17 04:28:23;;;;;;;10.65;5.47;;;;;;;12.61;66.63;99247.80;1693727;84;21012;-76
2022/05/17 04:30:50;;;;;;;9.85;4.85;;;;;;;12.62;67.23;99248.22;1693977;84;21012;-76
2022/05/17 04:33:17;;;;;;;13.32;6.10;;;;;;;12.67;67.25;99249.37;1696886;84;21054;-76
2022/05/17 04:35:44;;;;;;;14.05;6.25;;;;;;;12.71;68.29;99249.25;1700764;84;21035;-77
2022/05/17 04:38:11;;;;;;;16.93;5.67;;;;;;;12.77;68.35;99243.41;1695680;84;21083;-76
2022/05/17 04:40:39;;;;;;;12.10;5.92;;;;;;;12.83;68.12;99245.40;1708316;84;21086;-76
2022/05/17 04:43:06;;;;;;;11.80;5.62;;;;;;;12.88;68.55;99243.48;1708281;84;21038;-76
2022/05/17 04:45:32;;;;;;;12.10;5.33;;;;;;;13.00;67.96;99239.62;1708410;84;21348;-76
2022/05/17 04:47:59;;;;;;;13.28;5.95;;;;;;;13.11;68.00;99237.95;1708310;84;21566;-76
2022/05/17 04:50:26;;;;;;;11.20;5.50;;;;;;;13.25;67.84;99238.36;1707024;84;21031;-76
2022/05/17 04:52:53;;;;;;;19.52;7.15;;;;;;;13.40;67.48;99236.16;1708456;84;21629;-77
2022/05/17 04:55:21;;;;;;;13.38;6.45;;;;;;;13.57;67.29;99240.36;1698765;84;21023;-77
2022/05/17 04:57:48;;;;;;;14.13;7.00;;;;;;;13.71;67.43;99237.26;1666004;86;21043;-76
2022/05/17 05:00:19;;;;;;;22.27;7.50;;;;;;;13.86;67.41;99229.30;1671440;84;21097;-76
2022/05/17 05:02:46;;;;;;;17.30;8.53;;;;;;;14.02;67.90;99233.52;1698401;84;21518;-75
2022/05/17 05:05:15;;;;;;;18.87;7.87;;;;;;;14.17;67.50;99230.80;1701359;83;21023;-77
2022/05/17 05:07:42;;;;;;;17.35;6.75;;;;;;;14.30;66.87;99221.56;1696960;84;21074;-77
2022/05/17 05:10:10;;;;;;;15.32;6.10;;;;;;;14.44;65.74;99214.06;1701499;84;21084;-77
2022/05/17 05:12:37;;;;;;;12.58;5.92;;;;;;;14.47;65.19;99212.61;1694270;84;21044;-77
2022/05/17 05:15:05;;;;;;;15.88;6.50;;;;;;;14.52;65.20;99216.34;1694251;84;21023;-77
2022/05/17 05:17:34;;;;;;;16.73;6.50;;;;;;;14.60;64.75;99214.77;1703887;84;21571;-77
2022/05/17 05:20:02;;;;;;;10.53;5.87;;;;;;;14.67;64.22;99220.17;1698799;84;21027;-77
2022/05/17 05:22:33;;;;;;;15.83;5.90;;;;;;;14.81;63.86;99220.92;1698595;84;21039;-77
2022/05/17 05:25:01;;;;;;;11.85;6.25;;;;;;;14.94;63.55;99219.95;1693651;84;21019;-75
2022/05/17 05:27:33;;;;;;;17.52;6.28;;;;;;;15.00;63.65;99214.03;1693702;84;21020;-77
2022/05/17 05:30:02;;;;;;;14.43;6.43;;;;;;;15.08;63.27;99215.87;1697608;84;21000;-77
2022/05/17 05:32:29;;;;;;;13.50;6.30;;;;;;;15.10;63.02;99213.20;1674219;85;21086;-78
2022/05/17 05:34:56;;;;;;;20.52;8.15;;;;;;;15.11;63.07;99214.88;1670589;86;21109;-76
2022/05/17 05:37:23;;;;;;;13.32;7.87;;;;;;;15.17;63.00;99206.77;1704582;84;21038;-77
2022/05/17 05:39:50;;;;;;;15.08;6.72;;;;;;;15.23;62.72;99210.44;1706596;84;21078;-76
2022/05/17 05:42:17;;;;;;;14.93;6.92;;;;;;;15.28;62.55;99211.10;1693508;84;21023;-77
2022/05/17 05:44:43;;;;;;;17.05;7.72;;;;;;;15.37;62.51;99199.84;1693631;84;21047;-77
2022/05/17 05:47:10;;;;;;;26.95;9.25;;;;;;;15.46;62.36;99200.77;1698423;84;21614;-76
2022/05/17 05:49:37;;;;;;;21.17;8.73;;;;;;;15.49;62.45;99194.06;1708109;84;21023;-77
2022/05/17 05:52:04;;;;;;;16.25;8.23;;;;;;;15.63;62.43;99197.38;1697485;84;21036;-79
2022/05/17 05:54:31;;;;;;;15.20;8.10;;;;;;;15.76;62.18;99192.03;1698815;84;21070;-76
2022/05/17 05:57:00;;;;;;;14.90;7.80;;;;;;;15.88;61.95;99190.16;1698430;84;22169;-77
2022/05/17 05:59:29;;;;;;;27.73;7.85;;;;;;;15.95;62.08;99197.28;1703972;84;21102;-76
2022/05/17 06:01:57;;;;;;;45.58;9.55;;;;;;;16.10;61.46;99204.92;1702548;84;21035;-77
2022/05/17 06:04:27;;;;;;;49.15;9.30;;;;;;;16.20;61.39;99201.41;1697810;84;22174;-77
2022/05/17 06:06:56;;;;;;;67.92;9.03;;;;;;;16.32;61.06;99190.81;1704268;84;21046;-77
2022/05/17 06:09:25;;;;;;;64.90;9.30;;;;;;;16.41;60.86;99193.86;1693236;84;21352;-74
2022/05/17 06:11:52;;;;;;;27.30;7.17;;;;;;;16.50;60.70;99194.70;1699838;84;21065;-76
2022/05/17 06:14:20;;;;;;;25.97;7.42;;;;;;;16.59;60.08;99186.88;1702308;84;22611;-76
2022/05/17 06:16:51;;;;;;;24.52;6.65;;;;;;;16.64;60.00;99194.05;1692318;84;21096;-78
2022/05/17 06:19:19;;;;;;;20.17;6.92;;;;;;;16.72;59.82;99180.55;1709010;83;21157;-74
2022/05/17 06:21:46;;;;;;;16.40;6.58;;;;;;;16.80;59.78;99182.33;1701528;83;21010;-76
2022/05/17 06:24:12;;;;;;;18.60;6.60;;;;;;;16.89;59.64;99181.92;1707108;83;21573;-78
2022/05/17 06:26:39;;;;;;;14.50;5.92;;;;;;;16.96;59.37;99181.62;1707143;83;22175;-77
2022/05/17 06:29:06;;;;;;;17.98;6.00;;;;;;;17.03;58.53;99182.55;1708074;83;21136;-78
2022/05/17 06:31:34;;;;;;;19.57;7.45;;;;;;;17.12;58.35;99177.76;1704721;82;21541;-79
2022/05/17 06:34:01;;;;;;;10.30;5.65;;;;;;;17.20;58.27;99184.78;1709097;83;21020;-78
2022/05/17 06:36:28;;;;;;;9.65;5.45;;;;;;;17.32;57.29;99185.94;1709222;83;21046;-78
2022/05/17 06:38:54;;;;;;;12.37;5.58;;;;;;;17.42;57.27;99181.90;1706271;83;20977;-77
2022/05/17 06:41:21;;;;;;;14.45;6.28;;;;;;;17.53;57.27;99186.14;1707120;83;21059;-79
2022/05/17 06:43:48;;;;;;;11.78;5.85;;;;;;;17.66;56.94;99176.66;1712704;83;21026;-78
2022/05/17 06:46:15;;;;;;;11.88;5.20;;;;;;;17.76;56.46;99173.55;1709626;82;21584;-78
2022/05/17 06:48:42;;;;;;;18.55;5.30;;;;;;;17.87;55.38;99172.55;1708038;83;21110;-78
2022/05/17 06:51:09;;;;;;;12.58;4.50;;;;;;;17.97;53.67;99172.91;1709432;83;21471;-78
2022/05/17 06:53:36;;;;;;;9.65;5.00;;;;;;;18.06;53.76;99160.11;1705856;83;21014;-78
2022/05/17 06:56:06;;;;;;;10.10;4.35;;;;;;;18.19;53.56;99159.42;1689101;83;21943;-78
2022/05/17 06:58:33;;;;;;;12.53;4.15;;;;;;;18.29;53.22;99160.61;1712783;83;21355;-79
2022/05/17 07:01:00;;;;;;;15.85;4.20;;;;;;;18.43;53.66;99149.30;1711881;83;21523;-78
2022/05/17 07:03:27;;;;;;;8.08;3.98;;;;;;;18.61;53.15;99140.83;1713446;83;21047;-78
2022/05/17 07:05:54;;;;;;;9.58;4.17;;;;;;;18.80;53.00;99143.27;1700496;83;21057;-78
2022/05/17 07:08:20;;;;;;;15.43;4.47;;;;;;;18.96;52.50;99150.67;1707089;83;21042;-78
2022/05/17 07:13:32;;;;;;;21.62;5.10;;;;;;;19.17;51.58;99147.22;1709867;83;21015;-78
2022/05/17 07:15:59;;;;;;;19.02;5.08;;;;;;;19.28;51.07;99140.00;1703378;83;21012;-78
2022/05/17 07:18:28;;;;;;;21.45;5.05;;;;;;;19.37;51.50;99140.75;1708447;83;21070;-78
2022/05/17 07:20:55;;;;;;;24.57;5.17;;;;;;;19.46;51.41;99131.45;1712138;83;21030;-78
2022/05/17 07:23:24;;;;;;;15.75;5.33;;;;;;;19.54;51.47;99131.82;1705516;83;21046;-78
2022/05/17 07:25:52;;;;;;;12.13;4.62;;;;;;;19.67;51.40;99130.58;1710893;83;21031;-78
2022/05/17 07:28:22;;;;;;;14.13;5.03;;;;;;;19.80;51.29;99126.76;1711713;83;21088;-77
2022/05/17 07:30:50;;;;;;;10.98;4.10;;;;;;;19.94;51.03;99121.45;1710586;83;21001;-79
2022/05/17 07:33:18;;;;;;;12.50;4.92;;;;;;;20.09;50.70;99121.41;1710026;83;21542;-79
2022/05/17 07:35:45;;;;;;;11.45;4.10;;;;;;;20.18;50.37;99123.48;1707874;83;21443;-79
2022/05/17 07:38:12;;;;;;;12.13;4.25;;;;;;;20.30;49.73;99116.56;1713820;82;21014;-78
2022/05/17 07:40:39;;;;;;;9.18;3.40;;;;;;;20.40;49.85;99107.09;1704126;82;21047;-78
2022/05/17 07:43:06;;;;;;;9.68;3.30;;;;;;;20.54;48.38;99110.15;1709451;82;21098;-78
2022/05/17 07:45:32;;;;;;;10.98;3.05;;;;;;;20.63;47.24;99113.06;1708117;83;21443;-78
2022/05/17 07:48:01;;;;;;;8.38;3.50;;;;;;;20.73;47.95;99104.50;1706698;83;21028;-78
2022/05/17 07:50:28;;;;;;;10.35;3.33;;;;;;;20.89;47.22;99104.32;1697767;82;21065;-79
2022/05/17 07:52:54;;;;;;;8.68;3.27;;;;;;;21.05;47.31;99100.55;1701364;83;21573;-78
2022/05/17 07:55:21;;;;;;;11.48;3.80;;;;;;;21.23;46.07;99092.31;1703834;83;21074;-76
2022/05/17 07:57:47;;;;;;;10.82;3.92;;;;;;;21.37;46.44;99095.33;1702918;83;21054;-79
2022/05/17 08:00:15;;;;;;;8.10;3.60;;;;;;;21.51;46.23;99095.72;1646864;86;21067;-79
2022/05/17 08:02:43;;;;;;;12.10;3.75;;;;;;;21.67;45.84;99090.19;1691947;83;21023;-78
2022/05/17 08:05:10;;;;;;;9.88;3.35;;;;;;;21.75;45.50;99086.03;1688987;83;21512;-78
2022/05/17 08:07:38;;;;;;;6.67;3.25;;;;;;;21.89;45.45;99082.88;1691435;84;21143;-79
2022/05/17 08:10:06;;;;;;;13.75;3.80;;;;;;;22.00;44.60;99079.83;1689293;84;21021;-79
2022/05/17 08:12:33;;;;;;;8.70;3.83;;;;;;;22.05;44.82;99075.02;1691930;84;21799;-78
2022/05/17 08:14:59;;;;;;;8.30;3.20;;;;;;;22.19;44.87;99066.07;1687177;84;20991;-79
2022/05/17 08:17:26;;;;;;;7.67;3.42;;;;;;;22.22;44.58;99059.24;1692810;83;21029;-79
2022/05/17 08:19:53;;;;;;;7.30;3.10;;;;;;;22.45;44.16;99068.63;1689305;83;21029;-80
2022/05/17 08:22:19;;;;;;;4.95;3.00;;;;;;;22.65;43.22;99063.16;1695408;84;21015;-79
2022/05/17 08:27:31;;;;;;;5.60;2.90;;;;;;;23.14;41.43;99051.94;1693728;83;21457;-79
2022/05/17 08:30:00;;;;;;;6.08;2.83;;;;;;;23.33;41.48;99047.38;1694540;84;21094;-79
2022/05/17 08:35:12;;;;;;;5.67;3.12;;;;;;;23.73;40.92;99052.16;1690298;83;21029;-78
2022/05/17 08:37:38;;;;;;;5.05;2.90;;;;;;;24.00;41.15;99049.97;1685433;83;21035;-80
2022/05/17 08:40:07;;;;;;;8.70;3.12;;;;;;;24.22;41.38;99042.90;1692289;84;21017;-80
2022/05/17 08:42:48;;;;;;;8.28;3.17;;;;;;;24.51;40.13;99047.63;1697124;84;21551;-79
2022/05/17 08:45:17;;;;;;;11.40;3.52;;;;;;;24.68;37.94;99050.21;1697640;84;21055;-80
2022/05/17 08:47:52;;;;;;;7.60;3.22;;;;;;;24.83;37.80;99044.93;1684757;84;20980;-80
2022/05/17 08:50:23;;;;;;;7.97;3.20;;;;;;;24.88;36.77;99041.87;1691939;84;21043;-80
2022/05/17 08:52:50;;;;;;;10.72;3.17;;;;;;;24.90;36.51;99038.59;1689428;84;21011;-78
2022/05/17 08:55:31;;;;;;;8.83;2.87;;;;;;;25.07;37.37;99039.33;1665599;84;21016;-80
2022/05/17 08:58:09;;;;;;;6.42;3.20;;;;;;;25.20;37.14;99041.26;1689637;83;21071;-79
2022/05/17 09:00:47;;;;;;;8.80;3.37;;;;;;;25.30;37.72;99043.16;1694388;84;21075;-79
2022/05/17 09:03:43;;;;;;;8.95;3.20;;;;;;;25.35;37.42;99040.95;1691453;84;21009;-79
2022/05/17 09:06:25;;;;;;;8.05;3.20;;;;;;;25.49;37.07;99043.73;1695317;83;21074;-79
2022/05/17 09:09:09;;;;;;;10.03;2.90;;;;;;;25.49;36.70;99039.74;1698167;83;21092;-79
2022/05/17 09:11:58;;;;;;;11.97;3.12;;;;;;;25.50;36.73;99042.25;1694386;84;21041;-79
2022/05/17 09:14:31;;;;;;;9.53;3.40;;;;;;;25.31;36.15;99039.05;1692026;84;21035;-78
2022/05/17 09:17:13;;;;;;;8.98;2.85;;;;;;;25.26;35.59;99039.92;1695792;83;21067;-80
2022/05/17 09:19:40;;;;;;;9.08;2.87;;;;;;;25.20;36.01;99035.94;1699011;83;21031;-80
2022/05/17 09:22:07;;;;;;;11.60;3.27;;;;;;;25.11;35.56;99029.23;1693649;84;21043;-78
2022/05/17 09:24:39;;;;;;;6.10;2.80;;;;;;;25.05;35.67;99030.64;1693082;84;21067;-79
2022/05/17 09:27:30;;;;;;;9.63;2.92;;;;;;;25.07;35.84;99030.02;1698073;83;21041;-78
2022/05/17 09:30:08;;;;;;;8.93;3.17;;;;;;;25.06;35.05;99024.33;1687186;84;21167;-80
2022/05/17 09:32:44;;;;;;;9.83;3.12;;;;;;;25.04;35.03;99032.92;1676789;83;20991;-79
2022/05/17 09:35:17;;;;;;;5.62;3.12;;;;;;;25.06;35.87;99036.79;1699069;84;21519;-79
2022/05/17 09:37:51;;;;;;;9.35;3.52;;;;;;;25.11;35.86;99041.20;1695898;84;21503;-79
2022/05/17 09:40:31;;;;;;;6.75;2.87;;;;;;;25.06;36.20;99042.94;1703074;84;21578;-78
2022/05/17 09:43:06;;;;;;;6.72;2.50;;;;;;;25.04;35.96;99040.91;1690708;83;21502;-78
2022/05/17 09:45:49;;;;;;;14.07;3.33;;;;;;;24.90;36.02;99039.42;1690686;84;21131;-78
2022/05/17 09:54:36;;;;;;;10.23;3.02;;;;;;;24.52;35.35;99039.53;1702458;83;21652;-80
2022/05/17 09:57:13;;;;;;;10.58;2.95;;;;;;;24.38;35.87;99038.00;1693587;83;20999;-78
2022/05/17 09:59:41;;;;;;;8.38;2.52;;;;;;;24.28;36.54;99035.75;1698174;83;21008;-79
2022/05/17 10:02:35;;;;;;;11.68;3.10;;;;;;;24.18;36.84;99030.35;1700721;83;21030;-78
2022/05/17 10:05:16;;;;;;;9.98;2.60;;;;;;;24.20;37.13;99035.55;1694519;83;21002;-79
2022/05/17 10:07:56;;;;;;;11.75;3.52;;;;;;;24.09;37.55;99035.08;1691441;83;21103;-79
2022/05/17 10:10:35;;;;;;;12.30;4.25;;;;;;;24.05;37.75;99033.65;1691479;83;21255;-79
2022/05/17 10:13:23;;;;;;;7.80;3.35;;;;;;;23.95;37.94;99041.52;1693535;84;21145;-79
2022/05/17 10:15:55;;;;;;;7.05;2.77;;;;;;;23.93;38.23;99043.95;1690655;83;21045;-80
2022/05/17 10:18:45;;;;;;;13.37;2.87;;;;;;;23.77;38.65;99050.95;1680407;84;21072;-79
2022/05/17 10:21:17;;;;;;;9.10;3.15;;;;;;;23.72;39.02;99049.16;1655165;85;22324;-79
2022/05/17 10:24:08;;;;;;;7.42;3.02;;;;;;;23.67;39.25;99059.30;1691997;84;21053;-79
2022/05/17 10:26:42;;;;;;;8.33;3.20;;;;;;;23.56;39.79;99052.20;1689879;84;21523;-78
2022/05/17 10:29:52;;;;;;;7.08;2.83;;;;;;;23.45;41.46;99066.30;1686052;84;21046;-79
2022/05/17 10:32:33;;;;;;;8.43;3.10;;;;;;;23.30;41.37;99066.17;1697215;84;21110;-79
2022/05/17 10:35:17;;;;;;;5.28;2.60;;;;;;;23.11;42.41;99074.23;1688327;83;21026;-78
2022/05/17 10:38:03;;;;;;;8.10;3.08;;;;;;;22.97;42.37;99081.06;1683736;84;21631;-78
2022/05/17 10:40:34;;;;;;;6.65;2.70;;;;;;;22.86;42.20;99073.95;1691763;83;21564;-79
2022/05/17 10:43:03;;;;;;;5.70;2.98;;;;;;;22.74;42.88;99076.17;1685151;84;21928;-77
2022/05/17 10:45:35;;;;;;;5.40;2.40;;;;;;;22.68;43.56;99088.11;1694061;83;21015;-78
2022/05/17 10:48:32;;;;;;;7.33;2.80;;;;;;;22.45;44.87;99084.52;1690524;84;21845;-78
2022/05/17 10:51:11;;;;;;;6.35;3.00;;;;;;;22.20;47.41;99081.47;1690736;84;21028;-78
2022/05/17 10:54:12;;;;;;;10.45;3.00;;;;;;;21.95;47.72;99086.41;1679257;84;21003;-78
2022/05/17 10:56:50;;;;;;;6.45;3.25;;;;;;;21.74;48.13;99096.23;1691053;84;21019;-78
2022/05/17 10:59:40;;;;;;;6.60;3.40;;;;;;;21.59;49.30;99116.69;1697601;84;21550;-79
2022/05/17 11:02:30;;;;;;;12.95;3.83;;;;;;;21.52;48.90;99116.73;1693304;83;20980;-79
2022/05/17 11:05:29;;;;;;;14.30;4.35;;;;;;;21.46;50.74;99103.95;1687676;84;21027;-79
2022/05/17 11:08:16;;;;;;;9.70;4.15;;;;;;;21.39;52.88;99098.70;1692467;84;21070;-78
2022/05/17 11:11:09;;;;;;;9.50;3.80;;;;;;;21.16;56.15;99105.09;1692055;83;21034;-78
2022/05/17 11:13:59;;;;;;;14.10;4.12;;;;;;;20.91;58.76;99130.16;1689712;84;21026;-78
2022/05/17 11:16:37;;;;;;;11.00;3.70;;;;;;;20.57;63.04;99133.70;1673241;84;21009;-78
2022/05/17 11:19:27;;;;;;;8.43;3.60;;;;;;;20.41;61.09;99136.05;1688976;84;21088;-78
2022/05/17 11:22:39;;;;;;;8.25;4.00;;;;;;;20.21;63.13;99131.18;1682851;83;20996;-77
2022/05/17 11:25:27;;;;;;;11.97;4.20;;;;;;;19.97;65.37;99125.68;1691628;83;21195;-78
2022/05/17 11:28:02;;;;;;;11.08;4.58;;;;;;;19.76;64.15;99123.94;1687536;84;21317;-78
2022/05/17 11:30:40;;;;;;;9.25;4.25;;;;;;;19.63;65.48;99116.73;1684369;84;21059;-78
2022/05/17 11:33:23;;;;;;;9.23;4.28;;;;;;;19.53;65.17;99116.93;1689904;83;21122;-78
2022/05/17 11:36:05;;;;;;;10.68;4.00;;;;;;;19.54;66.00;99117.80;1688717;84;21029;-77
2022/05/17 11:38:40;;;;;;;18.25;6.85;;;;;;;19.57;64.50;99113.64;1689556;84;21429;-78
2022/05/17 11:41:21;;;;;;;14.55;4.47;;;;;;;19.54;67.55;99105.45;1688955;83;21534;-77
2022/05/17 11:44:10;;;;;;;11.85;4.85;;;;;;;19.55;65.16;99100.54;1684130;84;21086;-77
2022/05/17 11:46:44;;;;;;;12.90;6.40;;;;;;;19.62;65.40;99091.80;1688052;83;21573;-78
2022/05/17 11:49:19;;;;;;;10.03;4.55;;;;;;;19.72;66.82;99087.67;1670632;85;21579;-79
2022/05/17 11:52:03;;;;;;;10.35;5.40;;;;;;;19.81;67.77;99089.70;1678400;83;20991;-79
2022/05/17 11:54:51;;;;;;;7.85;4.30;;;;;;;19.86;67.79;99087.64;1688267;84;21456;-78
2022/05/17 11:57:29;;;;;;;12.37;4.47;;;;;;;19.97;66.86;99097.98;1684697;84;22066;-78
2022/05/17 12:00:04;;;;;;;6.97;4.50;;;;;;;20.06;67.20;99099.55;1689730;84;22192;-78
2022/05/17 12:02:51;;;;;;;9.63;4.50;;;;;;;20.17;67.29;99099.33;1692352;83;20988;-79
2022/05/17 12:05:43;;;;;;;13.70;4.62;;;;;;;20.27;67.04;99095.14;1688173;84;21067;-76
2022/05/17 12:08:40;;;;;;;8.78;3.72;;;;;;;20.28;66.88;99108.73;1691911;84;21002;-77